Aérodrome :
LOGIN :

S'inscrire | Disclaimer

   EN    FR    IT 

 










Légende :    VFR   VFR Marginal   IFR   IFR Intensif   IFR Très Intensif
Visi : 
Plafond : 
>= 8 km
>= 3000ft
5 à 8 km
1000 à 3000 ft
1500m à 5 km
500 à 1000 ft
800 à 1500m
200 à 500 ft
< 800m
< 200 ft
Symboles :   Orages  Brouillard  Fortes neiges  Fortes précipitations  Vent > 20 kt
SIGMETs :   Divers  Orages  Givrage  Turbulence  Onde Orograph.  Cendres Volcan.






- Altitude de l'aérodrome : 659 ft
- Code IATA : LGG


EBLG - Liège

DERNIER METAR :
  • 190720Z 03006KT 360V070 8000 FEW005 BKN006 15/14 Q1016 BECMG BKN012

METARs EXPIRÉS :
  • 190650Z 03008KT 5000 BR SCT004 BKN005 14/14 Q1016 BECMG 6000 NSW BKN005
  • 190620Z 02005KT 4000 BR SCT003 BKN004 14/13 Q1016 BECMG 6000 NSW BKN005
  • 190550Z 02006KT 2500 BR SCT001 BKN003 14/13 Q1016 TEMPO BKN002
  • 190520Z 02006KT 3800 BR SCT002 BKN003 OVC004 14/13 Q1016 TEMPO 2500 BKN002
  • 190450Z 03006KT 5000 BR SCT003 BKN004 14/13 Q1015 TEMPO 4000 BR
  • 190420Z 02006KT 350V050 6000 SCT003 BKN004 14/13 Q1015 TEMPO 4000 BR
  • 190350Z 01005KT 8000 SCT003 BKN004 BKN006 14/13 Q1015 TEMPO 4000 BR
  • 190320Z 36006KT 8000 FEW003 BKN006 14/13 Q1014 TEMPO 4000 BKN004
  • 190250Z 02007KT 340V050 5000 BR FEW002 BKN005 14/13 Q1014 TEMPO 4000 BKN004

TAF TAF EBLG
Valide du 19 à 06h jusqu'au 20 à 12h UTC


190500Z 1906/2012 02006KT 5000 BR SCT005 BKN009
TEMPO 1906/1909 2500 DZ BKN003
PROB30
TEMPO 1906/1907 0400 FG BKN001
BECMG 1910/1912 8000 NSW SCT020



MET'MAP, la Météo Aéronautique d'un coup d'oeil ! - Copyright ORBIFLY Décembre 2007 - Disclaimer

ORBIFLY MET'MAP TEAM :

Programmation & Développement : Alexandra Zaïnal
Sur une idée originale de : Baudouin d'Aumeries
Soutien technique & logistique : Manuel Goepfert
Assistance : Marc-Olivier Méhu




SOURCES & CREDITS :

   NOAA